Time;durP1;ratioP1;P1;durP2;ratioP2;P2;SDS_P1;SDS_P2;PMS_P1;PMS_P2;Temp;Humidity;BMP_temperature;BMP_pressure;BME280_temperature;BME280_humidity;BME280_pressure;Samples;Min_cycle;Max_cycle;Signal;HPM_P1;HPM_P2
2023/02/06 00:02:03;;;;;;;19.57;2.23;;;2.40;99.90;;;;;;4886011;29;20047;-71
2023/02/06 00:04:29;;;;;;;17.37;2.17;;;2.40;99.90;;;;;;4896088;29;20032;-70
2023/02/06 00:06:55;;;;;;;18.33;1.60;;;2.40;99.90;;;;;;4915806;29;20412;-70
2023/02/06 00:09:22;;;;;;;18.13;2.17;;;2.40;99.90;;;;;;4905174;29;20043;-72
2023/02/06 00:11:48;;;;;;;15.55;1.77;;;2.40;99.90;;;;;;4894297;29;20036;-71
2023/02/06 00:14:14;;;;;;;21.43;2.70;;;2.40;99.90;;;;;;4916475;29;20047;-73
2023/02/06 00:16:40;;;;;;;27.63;3.10;;;2.30;99.90;;;;;;4901870;29;20066;-72
2023/02/06 00:19:07;;;;;;;26.00;2.23;;;2.30;99.90;;;;;;4904298;29;20036;-71
2023/02/06 00:21:33;;;;;;;15.43;1.97;;;2.30;99.90;;;;;;4901411;29;20028;-71
2023/02/06 00:24:01;;;;;;;23.00;1.93;;;2.30;99.90;;;;;;4886347;29;20068;-70
2023/02/06 00:26:30;;;;;;;28.47;2.63;;;2.30;99.90;;;;;;4914919;29;20044;-71
2023/02/06 00:28:56;;;;;;;27.90;2.70;;;2.30;99.90;;;;;;4900935;29;20051;-72
2023/02/06 00:31:24;;;;;;;16.77;1.40;;;2.30;99.90;;;;;;4887438;29;20039;-70
2023/02/06 00:33:50;;;;;;;25.57;2.43;;;2.30;99.90;;;;;;4891196;29;20689;-71
2023/02/06 00:36:17;;;;;;;19.47;1.43;;;2.40;99.90;;;;;;4913029;29;20043;-71
2023/02/06 00:38:43;;;;;;;23.07;2.50;;;2.30;99.90;;;;;;4884711;29;20539;-70
2023/02/06 00:41:09;;;;;;;17.97;2.37;;;2.30;99.90;;;;;;4921252;29;20032;-70
2023/02/06 00:43:36;;;;;;;30.30;3.37;;;2.30;99.90;;;;;;4882219;29;20087;-72
2023/02/06 00:46:02;;;;;;;27.50;2.57;;;2.30;99.90;;;;;;4909545;29;20063;-72
2023/02/06 00:48:29;;;;;;;18.10;2.20;;;2.30;99.90;;;;;;4885921;29;20043;-70
2023/02/06 00:50:56;;;;;;;19.10;2.27;;;2.30;99.90;;;;;;4878621;29;20059;-71
2023/02/06 00:53:22;;;;;;;17.47;1.87;;;2.30;99.90;;;;;;4915841;29;20036;-71
2023/02/06 00:55:49;;;;;;;36.10;3.30;;;2.30;99.90;;;;;;4892735;29;20044;-70
2023/02/06 00:58:15;;;;;;;19.63;2.10;;;2.20;99.90;;;;;;4899106;29;20050;-70
2023/02/06 01:00:43;;;;;;;11.00;1.90;;;2.20;99.90;;;;;;4923023;29;20491;-70
2023/02/06 01:03:10;;;;;;;17.80;1.70;;;2.20;99.90;;;;;;4891102;29;20051;-70
2023/02/06 01:05:36;;;;;;;21.13;2.30;;;2.20;99.90;;;;;;4909317;29;20035;-70
2023/02/06 01:08:03;;;;;;;18.30;2.10;;;2.10;99.90;;;;;;4897511;29;20408;-71
2023/02/06 01:10:29;;;;;;;18.87;2.83;;;2.10;99.90;;;;;;4908313;29;20068;-71
2023/02/06 01:12:55;;;;;;;15.33;2.03;;;2.10;99.90;;;;;;4901493;29;20044;-70
2023/02/06 01:15:21;;;;;;;10.67;0.97;;;2.10;99.90;;;;;;4893702;29;20031;-71
2023/02/06 01:17:48;;;;;;;17.00;1.73;;;2.00;99.90;;;;;;4881888;29;20043;-70
2023/02/06 01:20:14;;;;;;;12.97;1.30;;;2.00;99.90;;;;;;4916346;29;20040;-72
2023/02/06 01:22:41;;;;;;;9.73;1.90;;;2.00;99.90;;;;;;4902286;29;20387;-70
2023/02/06 01:25:08;;;;;;;15.53;2.33;;;1.90;99.90;;;;;;4893191;29;20040;-71
2023/02/06 01:27:36;;;;;;;11.60;1.63;;;2.00;99.90;;;;;;4897888;29;20032;-71
2023/02/06 01:30:05;;;;;;;12.53;3.13;;;1.90;99.90;;;;;;4894106;29;20050;-72
2023/02/06 01:32:35;;;;;;;13.87;1.63;;;1.90;99.90;;;;;;4919868;29;20783;-70
2023/02/06 01:35:02;;;;;;;15.87;2.50;;;2.00;99.90;;;;;;4893291;29;20490;-71
2023/02/06 01:37:29;;;;;;;11.90;2.03;;;2.00;99.90;;;;;;4911551;29;20048;-70
2023/02/06 01:39:55;;;;;;;21.23;2.60;;;2.10;99.90;;;;;;4904814;29;20050;-71
2023/02/06 01:42:21;;;;;;;27.30;3.83;;;2.10;99.90;;;;;;4916589;29;20036;-70
2023/02/06 01:44:48;;;;;;;19.87;2.50;;;2.10;99.90;;;;;;4879787;29;20048;-70
2023/02/06 01:47:14;;;;;;;19.23;2.53;;;2.20;99.90;;;;;;4914634;29;20050;-70
2023/02/06 01:49:44;;;;;;;16.67;3.70;;;2.20;99.90;;;;;;4899053;29;20035;-70
2023/02/06 01:52:23;;;;;;;13.07;2.43;;;2.20;99.90;;;;;;4920989;29;20051;-71
2023/02/06 01:54:54;;;;;;;22.00;3.57;;;2.30;99.90;;;;;;4890804;29;20040;-71
2023/02/06 01:57:22;;;;;;;21.23;2.70;;;2.30;99.90;;;;;;4914961;29;20044;-73
2023/02/06 01:59:52;;;;;;;18.83;1.90;;;2.30;99.90;;;;;;4887895;29;20032;-73
2023/02/06 02:02:19;;;;;;;24.70;2.33;;;2.40;99.90;;;;;;4920302;29;20073;-70
2023/02/06 02:04:46;;;;;;;16.27;2.10;;;2.40;99.90;;;;;;4891364;29;20040;-71
2023/02/06 02:07:32;;;;;;;14.77;1.73;;;2.40;99.90;;;;;;4907215;29;20044;-70
2023/02/06 02:09:58;;;;;;;19.20;2.47;;;2.50;99.90;;;;;;4880384;29;20412;-71
2023/02/06 02:12:27;;;;;;;10.77;1.50;;;2.50;99.90;;;;;;4907935;29;20455;-72
2023/02/06 02:14:55;;;;;;;12.40;1.57;;;2.50;99.90;;;;;;4912942;29;20036;-70
2023/02/06 02:17:55;;;;;;;18.57;1.80;;;2.60;99.90;;;;;;4903459;29;20039;-70
2023/02/06 02:20:43;;;;;;;7.50;1.07;;;2.60;99.90;;;;;;4913012;29;20047;-71
2023/02/06 02:23:38;;;;;;;13.23;1.27;;;2.60;99.90;;;;;;4902524;29;20455;-70
2023/02/06 02:26:26;;;;;;;18.30;1.83;;;2.70;99.90;;;;;;5083524;27;20405;-69
2023/02/06 02:29:04;;;;;;;22.37;3.03;;;2.70;99.90;;;;;;5064581;28;20044;-72
2023/02/06 02:31:57;;;;;;;20.60;2.13;;;2.70;99.90;;;;;;5047667;28;20348;-70
2023/02/06 02:34:54;;;;;;;17.03;2.57;;;2.70;99.90;;;;;;5030281;28;20455;-71
2023/02/06 02:37:29;;;;;;;14.60;1.37;;;2.80;99.90;;;;;;5060912;28;20051;-71
2023/02/06 02:40:26;;;;;;;16.07;2.73;;;2.80;99.90;;;;;;5050814;28;20039;-70
2023/02/06 02:43:07;;;;;;;15.93;1.50;;;2.80;99.90;;;;;;5053333;28;20047;-70
2023/02/06 02:45:47;;;;;;;21.07;1.97;;;2.80;99.90;;;;;;5055205;28;20048;-70
2023/02/06 02:48:21;;;;;;;19.60;3.27;;;2.80;99.90;;;;;;5048135;28;20044;-70
2023/02/06 02:50:48;;;;;;;19.70;3.40;;;2.80;99.90;;;;;;5052263;28;20036;-70
2023/02/06 02:53:14;;;;;;;19.13;2.80;;;2.80;99.90;;;;;;5049538;28;20051;-71
2023/02/06 02:55:41;;;;;;;22.90;2.70;;;2.80;99.90;;;;;;5040440;28;20041;-70
2023/02/06 02:58:14;;;;;;;14.77;2.23;;;2.80;99.90;;;;;;5082245;28;20036;-70
2023/02/06 03:01:02;;;;;;;20.03;2.33;;;2.80;99.90;;;;;;5053514;28;20036;-70
2023/02/06 03:03:31;;;;;;;19.13;1.93;;;2.80;99.90;;;;;;5050725;28;20491;-70
2023/02/06 03:06:25;;;;;;;14.30;1.43;;;2.80;99.90;;;;;;5028110;28;20063;-70
2023/02/06 03:09:10;;;;;;;18.10;2.60;;;2.80;99.90;;;;;;5080237;28;20036;-71
2023/02/06 03:11:43;;;;;;;14.83;1.70;;;2.80;99.90;;;;;;5049288;28;20043;-69
2023/02/06 03:14:22;;;;;;;12.25;1.52;;;2.90;99.90;;;;;;5058076;28;20040;-69
2023/02/06 03:16:53;;;;;;;18.40;1.77;;;2.90;99.90;;;;;;5061295;28;20040;-70
2023/02/06 03:19:25;;;;;;;16.20;1.60;;;2.90;99.90;;;;;;5081024;28;20024;-70
2023/02/06 03:21:51;;;;;;;21.90;1.50;;;2.90;99.90;;;;;;5081527;28;20032;-70
2023/02/06 03:24:24;;;;;;;16.80;1.70;;;2.90;99.90;;;;;;5058286;28;20056;-70
2023/02/06 03:26:57;;;;;;;20.35;2.65;;;2.90;99.90;;;;;;5085966;28;20550;-72
2023/02/06 03:29:24;;;;;;;16.65;2.80;;;2.90;99.90;;;;;;5061212;28;20051;-71
2023/02/06 03:32:10;;;;;;;16.93;2.10;;;2.90;99.90;;;;;;5063440;28;20372;-71
2023/02/06 03:35:00;;;;;;;13.87;1.40;;;2.90;99.90;;;;;;5058856;28;20064;-70
2023/02/06 03:37:27;;;;;;;14.67;1.30;;;2.90;99.90;;;;;;5047525;28;20503;-70
2023/02/06 03:39:57;;;;;;;16.73;2.00;;;2.90;99.90;;;;;;5049691;28;20545;-70
2023/02/06 03:42:24;;;;;;;19.00;1.63;;;2.90;99.90;;;;;;5053564;28;20023;-71
2023/02/06 03:44:56;;;;;;;13.27;1.30;;;2.80;99.90;;;;;;5066043;28;20040;-72
2023/02/06 03:47:24;;;;;;;12.73;1.10;;;2.80;99.90;;;;;;5069698;28;20036;-71
2023/02/06 03:49:52;;;;;;;11.57;1.13;;;2.80;99.90;;;;;;5070692;28;20032;-70
2023/02/06 03:52:24;;;;;;;16.73;1.90;;;2.70;99.90;;;;;;5051600;28;20047;-70
2023/02/06 03:55:01;;;;;;;15.63;1.33;;;2.60;99.90;;;;;;5046878;28;20035;-70
2023/02/06 03:57:29;;;;;;;9.47;1.33;;;2.60;99.90;;;;;;5048884;28;20552;-70
2023/02/06 03:59:55;;;;;;;13.23;1.10;;;2.50;99.90;;;;;;5049465;28;20037;-70
2023/02/06 04:02:24;;;;;;;18.37;1.73;;;2.40;99.90;;;;;;5068678;28;20029;-70
2023/02/06 04:04:50;;;;;;;13.17;1.60;;;2.50;99.90;;;;;;5046305;28;20407;-70
2023/02/06 04:07:28;;;;;;;16.03;2.40;;;2.50;99.90;;;;;;5049199;28;20035;-70
2023/02/06 04:09:54;;;;;;;11.13;2.03;;;2.50;99.90;;;;;;5052704;28;20032;-70
2023/02/06 04:12:21;;;;;;;12.32;1.50;;;2.50;99.90;;;;;;5031913;28;20032;-70
2023/02/06 04:14:48;;;;;;;15.47;1.73;;;2.50;99.90;;;;;;5028414;28;20036;-71
2023/02/06 04:17:14;;;;;;;14.23;1.60;;;2.50;99.90;;;;;;5053810;28;20052;-71
2023/02/06 04:19:41;;;;;;;11.77;1.73;;;2.50;99.90;;;;;;5049215;28;20048;-72
2023/02/06 04:22:10;;;;;;;11.88;1.30;;;2.50;99.90;;;;;;5048613;28;20043;-70
2023/02/06 04:24:39;;;;;;;9.83;1.00;;;2.50;99.90;;;;;;5062193;28;20680;-70
2023/02/06 04:27:06;;;;;;;19.33;2.17;;;2.50;99.90;;;;;;5047854;28;20028;-70
2023/02/06 04:29:32;;;;;;;14.33;1.10;;;2.50;99.90;;;;;;5048283;28;20043;-70
2023/02/06 04:32:01;;;;;;;20.80;1.90;;;2.50;99.90;;;;;;5049374;28;20025;-71
2023/02/06 04:34:28;;;;;;;16.10;0.93;;;2.50;99.90;;;;;;5027461;28;20494;-71
2023/02/06 04:36:55;;;;;;;15.13;1.03;;;2.60;99.90;;;;;;5064566;28;20051;-70
2023/02/06 04:39:21;;;;;;;17.93;1.80;;;2.50;99.90;;;;;;5051388;28;20032;-71
2023/02/06 04:41:47;;;;;;;17.80;1.63;;;2.50;99.90;;;;;;5069240;28;20043;-71
2023/02/06 04:44:14;;;;;;;22.67;2.63;;;2.50;99.90;;;;;;5043707;28;20044;-70
2023/02/06 04:46:42;;;;;;;17.53;2.10;;;2.50;99.90;;;;;;5016266;28;20039;-71
2023/02/06 04:49:09;;;;;;;16.03;2.57;;;2.50;99.90;;;;;;5064793;28;20410;-71
2023/02/06 04:51:35;;;;;;;18.77;2.33;;;2.50;99.90;;;;;;5030057;28;20028;-72
2023/02/06 04:54:03;;;;;;;21.87;1.97;;;2.50;99.90;;;;;;5027655;28;20043;-72
2023/02/06 04:56:29;;;;;;;11.83;1.13;;;2.50;99.90;;;;;;5044904;28;20042;-70
2023/02/06 04:58:55;;;;;;;18.17;1.50;;;2.50;99.90;;;;;;5051579;28;20028;-70
2023/02/06 05:01:21;;;;;;;11.93;1.00;;;2.50;99.90;;;;;;5047283;28;20028;-70
2023/02/06 05:03:48;;;;;;;11.57;1.10;;;2.50;99.90;;;;;;5028418;28;20032;-71
2023/02/06 05:06:15;;;;;;;14.67;1.33;;;2.50;99.90;;;;;;5011757;28;20036;-71
2023/02/06 05:08:42;;;;;;;15.03;1.70;;;2.60;99.90;;;;;;5030315;28;20041;-71
2023/02/06 05:11:08;;;;;;;10.43;1.50;;;2.60;99.90;;;;;;5048048;28;20059;-70
2023/02/06 05:13:35;;;;;;;10.23;0.93;;;2.60;99.90;;;;;;5047686;28;20037;-70
2023/02/06 05:16:07;;;;;;;7.40;1.30;;;2.60;99.90;;;;;;5024419;28;20052;-72
2023/02/06 05:18:33;;;;;;;7.30;0.80;;;2.50;99.90;;;;;;5072453;28;20028;-70
2023/02/06 05:21:00;;;;;;;11.73;1.53;;;2.50;99.90;;;;;;5062515;28;20043;-70
2023/02/06 05:23:27;;;;;;;12.90;1.97;;;2.50;99.90;;;;;;5066007;28;20034;-71
2023/02/06 05:25:53;;;;;;;15.40;1.73;;;2.40;99.90;;;;;;5022896;28;20059;-71
2023/02/06 05:28:20;;;;;;;21.40;1.90;;;2.40;99.90;;;;;;5065885;28;20111;-69
2023/02/06 05:30:46;;;;;;;14.87;1.37;;;2.30;99.90;;;;;;5065891;28;20029;-70
2023/02/06 05:33:12;;;;;;;13.43;1.77;;;2.30;99.90;;;;;;5047464;28;20047;-70
2023/02/06 05:35:39;;;;;;;9.67;1.90;;;2.30;99.90;;;;;;5038585;28;20037;-72
2023/02/06 05:38:06;;;;;;;11.07;1.27;;;2.20;99.90;;;;;;5029316;28;20032;-71
2023/02/06 05:40:32;;;;;;;9.80;2.10;;;2.20;99.90;;;;;;5064816;28;20025;-70
2023/02/06 05:42:58;;;;;;;11.40;1.20;;;2.20;99.90;;;;;;5017592;28;20052;-72
2023/02/06 05:45:25;;;;;;;9.07;1.30;;;2.10;99.90;;;;;;5026322;28;20051;-70
2023/02/06 05:47:52;;;;;;;8.47;1.00;;;2.10;99.90;;;;;;5044577;28;20431;-71
2023/02/06 05:50:19;;;;;;;11.53;1.27;;;2.10;99.90;;;;;;5043627;28;20037;-72
2023/02/06 05:52:45;;;;;;;7.87;1.57;;;2.10;99.90;;;;;;5047189;28;20526;-71
2023/02/06 05:55:12;;;;;;;8.63;1.03;;;2.10;99.90;;;;;;5025159;28;20028;-71
2023/02/06 05:57:38;;;;;;;11.33;0.93;;;2.10;99.90;;;;;;5061721;28;20032;-72
2023/02/06 06:00:05;;;;;;;13.77;1.43;;;2.10;99.90;;;;;;5028558;28;20044;-70
2023/02/06 06:02:38;;;;;;;15.13;1.57;;;2.20;99.90;;;;;;5063253;28;20036;-73
2023/02/06 06:05:04;;;;;;;6.83;1.07;;;2.20;99.90;;;;;;5041504;28;20434;-72
2023/02/06 06:07:30;;;;;;;12.13;1.47;;;2.20;99.90;;;;;;5037350;28;20036;-71
2023/02/06 06:09:57;;;;;;;14.77;1.10;;;2.20;99.90;;;;;;5045569;28;20631;-71
2023/02/06 06:12:23;;;;;;;15.50;1.80;;;2.20;99.90;;;;;;5044790;28;20025;-70
2023/02/06 06:14:50;;;;;;;12.85;0.98;;;2.30;99.90;;;;;;5039663;28;20028;-71
2023/02/06 06:17:16;;;;;;;7.13;1.70;;;2.30;99.90;;;;;;5007557;28;20020;-70
2023/02/06 06:19:42;;;;;;;9.70;1.10;;;2.30;99.90;;;;;;5061798;28;20597;-71
2023/02/06 06:22:10;;;;;;;8.57;1.33;;;2.20;99.90;;;;;;5043899;28;20036;-71
2023/02/06 06:24:36;;;;;;;10.97;1.20;;;2.30;99.90;;;;;;5056135;28;20056;-72
2023/02/06 06:27:03;;;;;;;4.33;0.80;;;2.20;99.90;;;;;;5060442;28;20044;-71
2023/02/06 06:29:29;;;;;;;12.13;1.43;;;2.20;99.90;;;;;;5016675;28;20047;-70
2023/02/06 06:31:56;;;;;;;13.27;1.37;;;2.30;99.90;;;;;;5046387;28;20060;-72
2023/02/06 06:34:22;;;;;;;14.47;1.40;;;2.30;99.90;;;;;;5060171;28;20039;-72
2023/02/06 06:36:48;;;;;;;8.23;1.30;;;2.30;99.90;;;;;;5064704;28;20036;-71
2023/02/06 06:39:14;;;;;;;11.95;2.03;;;2.30;99.90;;;;;;5046226;28;20025;-72
2023/02/06 06:41:41;;;;;;;8.80;1.50;;;2.30;99.90;;;;;;5045643;28;20041;-70
2023/02/06 06:44:07;;;;;;;10.13;1.23;;;2.40;99.90;;;;;;5047821;28;20067;-72
2023/02/06 06:46:33;;;;;;;11.30;1.60;;;2.40;99.90;;;;;;5060614;28;20028;-70
2023/02/06 06:49:00;;;;;;;13.97;1.90;;;2.40;99.90;;;;;;5046352;28;20041;-70
2023/02/06 06:51:28;;;;;;;7.57;1.20;;;2.40;99.90;;;;;;5067075;28;20730;-71
2023/02/06 06:53:55;;;;;;;6.63;1.30;;;2.40;99.90;;;;;;5043699;28;20044;-70
2023/02/06 06:56:21;;;;;;;6.15;1.40;;;2.50;99.90;;;;;;5061393;28;20037;-70
2023/02/06 06:58:49;;;;;;;7.63;1.37;;;2.50;99.90;;;;;;5048695;28;20040;-71
2023/02/06 07:01:16;;;;;;;6.67;1.10;;;2.50;99.90;;;;;;5016162;28;20032;-71
2023/02/06 07:03:47;;;;;;;6.67;0.97;;;2.50;99.90;;;;;;5028179;28;20029;-72
2023/02/06 07:06:14;;;;;;;10.03;1.50;;;2.50;99.90;;;;;;5041065;28;20036;-71
2023/02/06 07:08:41;;;;;;;11.17;1.40;;;2.50;99.90;;;;;;5064277;28;20045;-70
2023/02/06 07:11:13;;;;;;;13.33;2.27;;;2.60;99.90;;;;;;5037608;28;20032;-71
2023/02/06 07:13:40;;;;;;;6.97;1.02;;;2.60;99.90;;;;;;5037258;28;20028;-71
2023/02/06 07:16:07;;;;;;;9.27;1.07;;;2.60;99.90;;;;;;5057082;28;20044;-70
2023/02/06 07:18:34;;;;;;;3.67;1.03;;;2.70;99.90;;;;;;5043415;28;20039;-71
2023/02/06 07:21:00;;;;;;;5.50;0.83;;;2.60;99.90;;;;;;5056676;28;20048;-72
2023/02/06 07:23:26;;;;;;;4.97;0.87;;;2.60;99.90;;;;;;5060627;28;20040;-71
2023/02/06 07:25:55;;;;;;;4.70;0.75;;;2.70;99.90;;;;;;5057844;28;20051;-71
2023/02/06 07:28:21;;;;;;;8.77;1.17;;;2.70;99.90;;;;;;5043364;28;20039;-70
2023/02/06 07:30:47;;;;;;;10.03;1.73;;;2.80;99.90;;;;;;5032359;28;20028;-72
2023/02/06 07:33:14;;;;;;;5.43;0.70;;;2.70;99.90;;;;;;5016318;28;20479;-71
2023/02/06 07:35:42;;;;;;;4.87;0.67;;;2.80;99.90;;;;;;5045987;28;20035;-71
2023/02/06 07:38:08;;;;;;;8.83;0.77;;;2.80;99.90;;;;;;5049277;28;20040;-71
2023/02/06 07:40:35;;;;;;;8.00;1.00;;;2.80;99.90;;;;;;5049631;28;20067;-71
2023/02/06 07:43:01;;;;;;;2.70;0.80;;;2.80;99.90;;;;;;5032993;28;20041;-70
2023/02/06 07:45:34;;;;;;;;;;;2.80;99.90;;;;;;5063415;28;20051;-72
2023/02/06 07:48:03;;;;;;;9.00;1.40;;;2.80;99.90;;;;;;5066992;28;19912;-71
2023/02/06 07:50:29;;;;;;;9.95;1.33;;;2.80;99.90;;;;;;5034611;28;20040;-70
2023/02/06 07:52:56;;;;;;;8.20;1.80;;;2.80;99.90;;;;;;5033445;28;20036;-71
2023/02/06 07:55:22;;;;;;;8.33;1.67;;;2.80;99.90;;;;;;5062921;28;20034;-70
2023/02/06 07:57:48;;;;;;;11.47;2.03;;;2.80;99.90;;;;;;5065091;28;20036;-71
2023/02/06 08:00:15;;;;;;;8.40;1.63;;;2.90;99.90;;;;;;5067684;28;20028;-70
2023/02/06 08:02:42;;;;;;;6.93;1.23;;;2.90;99.90;;;;;;5069473;28;20491;-69
2023/02/06 08:05:09;;;;;;;5.53;1.55;;;3.00;99.90;;;;;;5047428;28;20041;-70
2023/02/06 08:07:35;;;;;;;11.80;1.95;;;3.00;99.90;;;;;;5029804;28;20040;-70
2023/02/06 08:10:01;;;;;;;10.50;1.60;;;3.10;99.90;;;;;;5047166;28;20495;-70
2023/02/06 08:12:29;;;;;;;8.93;1.87;;;3.10;99.90;;;;;;5049010;28;20519;-69
2023/02/06 08:14:55;;;;;;;11.77;1.80;;;3.20;99.90;;;;;;5061809;28;20040;-69
2023/02/06 08:17:22;;;;;;;8.10;1.80;;;3.20;99.90;;;;;;5064399;28;20032;-72
2023/02/06 08:19:48;;;;;;;11.00;2.83;;;3.30;99.90;;;;;;5065467;28;20032;-70
2023/02/06 08:22:14;;;;;;;10.05;1.63;;;3.40;99.90;;;;;;5050651;28;20114;-71
2023/02/06 08:24:41;;;;;;;7.20;2.00;;;3.40;99.90;;;;;;5061829;28;20056;-71
2023/02/06 08:27:07;;;;;;;10.83;2.47;;;3.40;99.90;;;;;;5045243;28;20048;-70
2023/02/06 08:29:41;;;;;;;12.03;2.47;;;3.50;99.90;;;;;;5047060;28;20407;-70
2023/02/06 08:32:09;;;;;;;7.70;2.57;;;3.50;99.90;;;;;;5069407;28;20059;-70
2023/02/06 08:34:37;;;;;;;7.90;1.55;;;3.50;99.90;;;;;;5027735;28;20404;-70
2023/02/06 08:37:03;;;;;;;7.85;2.00;;;3.60;99.90;;;;;;5062698;28;20044;-69
2023/02/06 08:39:29;;;;;;;6.32;1.80;;;3.60;99.90;;;;;;5051306;28;20518;-69
2023/02/06 08:41:56;;;;;;;6.67;1.47;;;3.60;99.90;;;;;;5031937;28;20037;-69
2023/02/06 08:44:22;;;;;;;11.27;1.67;;;3.70;99.90;;;;;;5011992;28;20479;-69
2023/02/06 08:46:49;;;;;;;9.93;2.07;;;3.70;99.90;;;;;;5050196;28;20237;-70
2023/02/06 08:49:18;;;;;;;6.28;1.70;;;3.80;99.90;;;;;;5048652;28;20036;-69
2023/02/06 08:51:45;;;;;;;7.43;1.50;;;3.80;99.90;;;;;;5064769;28;20033;-69
2023/02/06 08:54:14;;;;;;;9.32;2.63;;;3.80;99.90;;;;;;5026300;28;20419;-69
2023/02/06 08:56:41;;;;;;;10.52;2.17;;;3.90;99.90;;;;;;5045089;28;20519;-70
2023/02/06 08:59:09;;;;;;;11.23;2.50;;;3.90;99.90;;;;;;5067524;28;20115;-70
2023/02/06 09:01:37;;;;;;;6.50;1.98;;;3.90;99.90;;;;;;5064931;28;20028;-70
2023/02/06 09:04:09;;;;;;;7.97;2.72;;;3.90;99.90;;;;;;5026867;28;20037;-71
2023/02/06 09:06:37;;;;;;;9.52;1.80;;;4.00;99.90;;;;;;5046157;28;20043;-69
2023/02/06 09:09:05;;;;;;;8.60;1.90;;;4.10;99.90;;;;;;5065950;28;20111;-70
2023/02/06 09:11:32;;;;;;;9.57;2.03;;;4.10;99.90;;;;;;5048447;28;20048;-70
2023/02/06 09:14:00;;;;;;;6.50;1.45;;;4.20;99.90;;;;;;5034284;28;20056;-73
2023/02/06 09:16:28;;;;;;;6.78;1.95;;;4.30;99.90;;;;;;5027522;28;20045;-70
2023/02/06 09:18:55;;;;;;;15.20;2.80;;;4.30;99.90;;;;;;5047948;28;20404;-70
2023/02/06 09:21:23;;;;;;;11.35;2.08;;;4.50;99.90;;;;;;5033902;28;20033;-70
2023/02/06 09:23:52;;;;;;;13.07;2.53;;;4.60;99.90;;;;;;5029164;28;20047;-71
2023/02/06 09:26:22;;;;;;;14.45;3.25;;;4.70;99.90;;;;;;5029079;28;20063;-70
2023/02/06 09:28:57;;;;;;;9.80;2.25;;;4.80;99.90;;;;;;5027825;28;20496;-70
2023/02/06 09:31:25;;;;;;;9.85;2.17;;;4.80;99.90;;;;;;5047012;28;20033;-71
2023/02/06 09:33:52;;;;;;;10.13;2.25;;;4.90;99.90;;;;;;5031519;28;20495;-70
2023/02/06 09:36:20;;;;;;;10.38;1.95;;;5.00;99.90;;;;;;5045990;28;20039;-71
2023/02/06 09:38:49;;;;;;;11.23;2.08;;;5.20;99.90;;;;;;5046495;28;20037;-71
2023/02/06 09:41:26;;;;;;;9.73;1.38;;;5.30;99.90;;;;;;5048239;28;20060;-70
2023/02/06 09:44:25;;;;;;;13.32;1.73;;;5.40;99.90;;;;;;5042771;28;20431;-70
2023/02/06 09:47:19;;;;;;;12.00;2.38;;;5.60;99.90;;;;;;5011161;28;20041;-71
2023/02/06 09:49:50;;;;;;;12.50;2.03;;;5.70;99.90;;;;;;5045278;28;20045;-71
2023/02/06 09:52:28;;;;;;;16.50;2.78;;;5.90;99.90;;;;;;5044466;28;20037;-70
2023/02/06 09:55:13;;;;;;;13.85;2.25;;;6.10;99.90;;;;;;5023522;28;20037;-70
2023/02/06 09:58:10;;;;;;;9.88;1.65;;;6.20;99.90;;;;;;5041344;28;20471;-70
2023/02/06 10:00:49;;;;;;;12.88;2.05;;;6.30;99.90;;;;;;5045189;28;20040;-70
2023/02/06 10:04:00;;;;;;;9.48;1.15;;;6.50;99.90;;;;;;5044054;28;20037;-70
2023/02/06 10:06:47;;;;;;;14.77;2.13;;;6.70;99.90;;;;;;5020534;28;20087;-70
2023/02/06 10:09:19;;;;;;;19.90;2.33;;;6.80;99.90;;;;;;5028373;28;20061;-72
2023/02/06 10:11:49;;;;;;;13.60;2.40;;;7.00;99.90;;;;;;5044193;28;20045;-70
2023/02/06 10:14:17;;;;;;;12.48;2.35;;;7.10;99.90;;;;;;5022928;28;20508;-70
2023/02/06 10:16:47;;;;;;;10.70;1.50;;;7.20;99.90;;;;;;5027251;28;20040;-70
2023/02/06 10:19:46;;;;;;;13.80;1.80;;;7.30;99.90;;;;;;5027524;28;20048;-72
2023/02/06 10:22:19;;;;;;;10.68;1.65;;;7.50;99.90;;;;;;5047026;28;20040;-71
2023/02/06 10:25:15;;;;;;;16.55;3.38;;;7.70;99.90;;;;;;5023007;28;20064;-70
2023/02/06 10:27:44;;;;;;;12.75;1.85;;;7.90;99.90;;;;;;5036059;28;20045;-72
2023/02/06 10:30:20;;;;;;;16.63;1.75;;;8.00;99.90;;;;;;5012997;28;20064;-71
2023/02/06 10:32:52;;;;;;;9.52;1.25;;;8.30;99.90;;;;;;5044437;28;20044;-71
2023/02/06 10:35:57;;;;;;;15.63;1.80;;;8.50;99.90;;;;;;5039513;28;20044;-72
2023/02/06 10:38:45;;;;;;;19.23;2.72;;;8.80;99.90;;;;;;5025971;28;20064;-71
2023/02/06 10:41:35;;;;;;;14.90;1.77;;;9.00;99.90;;;;;;5043803;28;20045;-71
2023/02/06 10:44:41;;;;;;;10.68;1.33;;;9.10;99.90;;;;;;5042503;28;20041;-71
2023/02/06 10:47:27;;;;;;;13.65;1.63;;;9.10;99.90;;;;;;5042667;28;20451;-71
2023/02/06 10:50:17;;;;;;;14.30;1.65;;;9.10;99.90;;;;;;5046498;28;20032;-71
2023/02/06 10:52:45;;;;;;;16.77;1.40;;;9.00;99.90;;;;;;5056238;28;20123;-72
2023/02/06 10:55:27;;;;;;;17.75;2.28;;;9.00;99.90;;;;;;5045251;28;20029;-72
2023/02/06 10:58:10;;;;;;;18.73;2.05;;;9.10;99.90;;;;;;5026819;28;20488;-72
2023/02/06 11:00:38;;;;;;;11.80;1.58;;;9.20;99.90;;;;;;5047722;28;20472;-71
2023/02/06 11:03:10;;;;;;;19.45;2.92;;;9.60;99.90;;;;;;5030537;28;20029;-71
2023/02/06 11:05:36;;;;;;;16.63;1.83;;;9.70;99.90;;;;;;5022472;28;20417;-72
2023/02/06 11:08:12;;;;;;;9.43;1.10;;;9.80;99.90;;;;;;5046326;28;20025;-72
2023/02/06 11:10:39;;;;;;;14.15;1.73;;;9.80;99.90;;;;;;5047522;28;20492;-72
2023/02/06 11:13:20;;;;;;;16.55;2.35;;;9.80;99.90;;;;;;5025788;28;20044;-70
2023/02/06 11:16:15;;;;;;;14.70;2.25;;;9.80;99.90;;;;;;5039423;28;20037;-70
2023/02/06 11:18:44;;;;;;;11.40;1.55;;;9.80;99.90;;;;;;5031250;28;20427;-72
2023/02/06 11:21:13;;;;;;;16.73;2.17;;;9.70;99.90;;;;;;5047498;28;20048;-71
2023/02/06 11:23:41;;;;;;;16.33;1.52;;;9.60;99.90;;;;;;5046059;28;20041;-72
2023/02/06 11:26:13;;;;;;;18.75;1.67;;;9.50;99.90;;;;;;5023182;28;20049;-70
2023/02/06 11:29:00;;;;;;;16.55;1.85;;;9.40;99.90;;;;;;5031513;28;20040;-72
2023/02/06 11:31:42;;;;;;;15.95;2.00;;;9.30;99.90;;;;;;5044976;28;20487;-72
2023/02/06 11:34:23;;;;;;;17.75;3.33;;;9.20;99.90;;;;;;5039352;28;20044;-71
2023/02/06 11:36:55;;;;;;;19.77;6.70;;;9.20;99.90;;;;;;5024439;28;20037;-71
2023/02/06 11:39:29;;;;;;;20.15;5.30;;;9.10;99.90;;;;;;5045728;28;20515;-71
2023/02/06 11:42:19;;;;;;;15.85;2.60;;;9.00;99.90;;;;;;5055892;28;20044;-70
2023/02/06 11:44:49;;;;;;;15.57;1.77;;;9.00;99.90;;;;;;5041701;28;20445;-70
2023/02/06 11:47:32;;;;;;;12.20;1.25;;;8.90;99.90;;;;;;5041282;28;20033;-71
2023/02/06 11:50:20;;;;;;;12.75;2.45;;;8.90;99.90;;;;;;5044656;28;20041;-70
2023/02/06 11:52:47;;;;;;;11.18;1.45;;;8.90;99.90;;;;;;5046528;28;20040;-70
2023/02/06 11:55:27;;;;;;;11.23;2.50;;;8.90;99.90;;;;;;5022608;28;20044;-72
2023/02/06 11:58:11;;;;;;;16.35;2.72;;;9.00;99.90;;;;;;5041263;28;20039;-72
2023/02/06 12:00:56;;;;;;;15.27;1.80;;;9.10;99.90;;;;;;5024408;28;20041;-71
2023/02/06 12:03:36;;;;;;;13.57;1.10;;;9.20;99.90;;;;;;5049184;28;20489;-71
2023/02/06 12:06:34;;;;;;;20.40;1.90;;;9.30;99.90;;;;;;5037505;28;20536;-72
2023/02/06 12:09:04;;;;;;;11.50;1.15;;;9.40;99.90;;;;;;5047104;28;20451;-70
2023/02/06 12:11:36;;;;;;;15.43;1.40;;;9.40;99.90;;;;;;5046747;28;20033;-71
2023/02/06 12:14:16;;;;;;;15.10;1.75;;;9.40;99.90;;;;;;5025726;28;20041;-71
2023/02/06 12:16:46;;;;;;;14.65;1.73;;;9.30;99.90;;;;;;5048063;28;20045;-72
2023/02/06 12:19:23;;;;;;;8.85;1.13;;;9.30;99.90;;;;;;5045974;28;20025;-71
2023/02/06 12:21:57;;;;;;;10.20;0.80;;;9.20;99.90;;;;;;5046299;28;20399;-71
2023/02/06 12:24:30;;;;;;;14.32;1.58;;;9.10;99.90;;;;;;5044485;28;20060;-71
2023/02/06 12:26:59;;;;;;;15.88;1.20;;;9.10;99.90;;;;;;5042780;28;20055;-70
2023/02/06 12:29:40;;;;;;;12.57;1.88;;;9.10;99.90;;;;;;5068084;28;20036;-71
2023/02/06 12:32:17;;;;;;;9.95;1.00;;;9.10;99.90;;;;;;5034524;28;20036;-71
2023/02/06 12:34:52;;;;;;;17.60;2.30;;;9.10;99.90;;;;;;5028521;28;20036;-73
2023/02/06 12:37:30;;;;;;;16.23;2.10;;;9.20;99.90;;;;;;5027775;28;20044;-71
2023/02/06 12:40:00;;;;;;;22.90;5.05;;;9.20;99.90;;;;;;5036162;28;20051;-71
2023/02/06 12:42:46;;;;;;;22.33;8.32;;;9.20;99.90;;;;;;5035694;28;20388;-71
2023/02/06 12:45:15;;;;;;;29.63;9.82;;;9.20;99.90;;;;;;5028732;28;20043;-70
2023/02/06 12:48:10;;;;;;;17.02;4.22;;;9.10;99.90;;;;;;5045965;28;20411;-70
2023/02/06 12:51:20;;;;;;;17.92;2.30;;;8.90;99.90;;;;;;5038010;28;20036;-72
2023/02/06 12:54:03;;;;;;;14.82;1.02;;;8.90;99.90;;;;;;5048097;28;20041;-71
2023/02/06 12:57:18;;;;;;;11.63;0.98;;;9.00;99.90;;;;;;5027328;28;20047;-70
2023/02/06 13:00:00;;;;;;;16.50;1.80;;;9.20;99.90;;;;;;5031735;28;20041;-70
2023/02/06 13:02:35;;;;;;;11.57;1.08;;;9.30;99.90;;;;;;5068972;28;20522;-72
2023/02/06 13:05:15;;;;;;;14.13;2.15;;;9.40;99.90;;;;;;5031080;28;20625;-70
2023/02/06 13:07:42;;;;;;;16.00;1.88;;;9.40;99.90;;;;;;5043229;28;20037;-71
2023/02/06 13:10:22;;;;;;;12.35;1.30;;;9.40;99.90;;;;;;5032263;28;20036;-71
2023/02/06 13:12:57;;;;;;;14.43;1.38;;;9.30;99.90;;;;;;5066688;28;20044;-71
2023/02/06 13:15:26;;;;;;;15.98;3.97;;;9.20;99.90;;;;;;5044394;28;20043;-71